Indian Creek, Iowa
Current Conditions -  °F | °C
As of 3:52 AM on Monday 26 Jan 2015 (Local Time) from KCID Reporting Station
Overcast Overcast  
Wind Chill: 11°   Ceiling: 2100
Heat Index: 21°   Visibility: 10mi
Dew Point: 16°   Wind: 8mph
Humidity: 81%   Direction: 180°S
Pressure: 29.97"   Gusts: NA
Location:  42.0672°N, 91.5782°W
Report Text: KCID 260952Z AUTO 18007KT 10SM OVC021 M06/M09 A2997 RMK AO2 SLP159 T10611089
Loading
Personal Weather Stations






























Interactive Weather Map New forecast layout! Learn more

10-Day Weather Forecast

Advertisements
Track Severe Weather on mobile